createdAt,value
2023-05-05T00:02:42.480Z,7.46
2023-05-05T00:05:27.160Z,7.42
2023-05-05T00:08:11.640Z,7.44
2023-05-05T00:10:56.919Z,7.43
2023-05-05T00:13:41.678Z,7.41
2023-05-05T00:16:26.897Z,7.40
2023-05-05T00:19:11.625Z,7.37
2023-05-05T00:21:56.610Z,7.40
2023-05-05T00:24:41.460Z,7.40
2023-05-05T00:27:26.550Z,7.37
2023-05-05T00:30:13.043Z,7.38
2023-05-05T00:32:57.735Z,7.36
2023-05-05T00:35:42.917Z,7.35
2023-05-05T00:38:28.110Z,7.37
2023-05-05T00:41:12.806Z,7.36
2023-05-05T00:43:57.622Z,7.35
2023-05-05T00:46:42.860Z,7.33
2023-05-05T00:49:27.902Z,7.34
2023-05-05T00:52:12.847Z,7.32
2023-05-05T00:54:58.053Z,7.29
2023-05-05T00:57:43.529Z,7.26
2023-05-05T01:00:30.178Z,7.24
2023-05-05T01:03:15.296Z,7.21
2023-05-05T01:06:14.689Z,7.20
2023-05-05T01:09:35.510Z,7.18
2023-05-05T01:12:33.224Z,7.19
2023-05-05T01:15:34.587Z,7.15
2023-05-05T01:18:27.903Z,7.15
2023-05-05T01:21:18.536Z,7.14
2023-05-05T01:24:23.100Z,7.13
2023-05-05T01:27:29.931Z,7.08
2023-05-05T01:30:20.596Z,7.06
2023-05-05T01:33:13.823Z,7.06
2023-05-05T01:36:06.821Z,7.04
2023-05-05T01:38:58.689Z,7.02
2023-05-05T01:41:48.004Z,7.00
2023-05-05T01:44:35.736Z,6.96
2023-05-05T01:47:22.174Z,6.91
2023-05-05T01:50:08.791Z,6.81
2023-05-05T01:52:56.372Z,6.76
2023-05-05T01:55:42.570Z,6.70
2023-05-05T01:58:29.239Z,6.67
2023-05-05T02:01:14.787Z,6.59
2023-05-05T02:04:02.769Z,6.52
2023-05-05T02:06:52.357Z,6.44
2023-05-05T02:09:38.711Z,6.36
2023-05-05T02:12:23.309Z,6.30
2023-05-05T02:15:10.129Z,6.24
2023-05-05T02:17:56.486Z,6.17
2023-05-05T02:20:41.641Z,6.09
2023-05-05T02:23:26.739Z,6.00
2023-05-05T02:26:14.769Z,5.89
2023-05-05T02:29:07.188Z,5.82
2023-05-05T02:31:58.789Z,5.80
2023-05-05T02:34:48.897Z,5.75
2023-05-05T02:37:36.325Z,5.74
2023-05-05T02:40:23.847Z,5.72
2023-05-05T02:43:15.012Z,5.73
2023-05-05T02:45:59.913Z,5.70
2023-05-05T02:48:45.831Z,5.75
2023-05-05T02:51:31.970Z,5.79
2023-05-05T02:54:21.141Z,5.84
2023-05-05T02:57:08.460Z,5.90
2023-05-05T03:00:05.083Z,5.94
2023-05-05T03:03:06.225Z,6.00
2023-05-05T03:06:15.641Z,6.11
2023-05-05T03:09:08.073Z,6.26
2023-05-05T03:12:08.368Z,6.50
2023-05-05T03:15:06.024Z,6.71
2023-05-05T03:17:53.550Z,6.85
2023-05-05T03:20:40.088Z,6.98
2023-05-05T03:23:27.349Z,7.18
2023-05-05T03:26:17.932Z,7.36
2023-05-05T03:29:06.068Z,7.39
2023-05-05T03:31:52.116Z,7.30
2023-05-05T03:34:37.164Z,7.18
2023-05-05T03:37:22.908Z,7.11
2023-05-05T03:40:08.912Z,6.96
2023-05-05T03:42:54.254Z,6.87
2023-05-05T03:45:39.282Z,6.90
2023-05-05T03:48:25.077Z,7.21
2023-05-05T03:51:10.298Z,7.47
2023-05-05T03:53:55.518Z,7.84
2023-05-05T03:56:40.819Z,8.01
2023-05-05T03:59:25.321Z,8.13
2023-05-05T04:02:10.377Z,8.40
2023-05-05T04:04:55.313Z,8.73
2023-05-05T04:07:40.373Z,9.07
2023-05-05T04:10:25.192Z,9.26
2023-05-05T04:13:10.300Z,9.51
2023-05-05T04:15:56.019Z,9.60
2023-05-05T04:18:41.337Z,9.81
2023-05-05T04:21:26.364Z,10.02
2023-05-05T04:24:11.342Z,10.32
2023-05-05T04:26:56.368Z,10.59
2023-05-05T04:29:41.168Z,10.76
2023-05-05T04:32:26.468Z,10.81
2023-05-05T04:35:12.313Z,10.88
2023-05-05T04:37:57.545Z,11.04
2023-05-05T04:40:42.970Z,11.03
2023-05-05T04:43:28.704Z,10.91
2023-05-05T04:46:13.942Z,10.85
2023-05-05T04:48:58.929Z,10.94
2023-05-05T04:51:44.365Z,11.11
2023-05-05T04:54:29.360Z,11.29
2023-05-05T04:57:14.225Z,11.52
2023-05-05T05:00:00.376Z,11.68
2023-05-05T05:02:45.403Z,11.79
2023-05-05T05:05:30.805Z,11.87
2023-05-05T05:08:16.412Z,12.05
2023-05-05T05:11:00.936Z,12.16
2023-05-05T05:13:46.563Z,12.20
2023-05-05T05:16:31.413Z,12.12
2023-05-05T05:19:16.526Z,11.89
2023-05-05T05:22:01.552Z,11.89
2023-05-05T05:24:48.594Z,12.11
2023-05-05T05:27:33.917Z,12.48
2023-05-05T05:30:18.803Z,12.53
2023-05-05T05:33:11.478Z,12.61
2023-05-05T05:35:57.663Z,12.81
2023-05-05T05:38:43.051Z,12.92
2023-05-05T05:41:27.828Z,13.04
2023-05-05T05:44:12.878Z,13.07
2023-05-05T05:46:57.861Z,13.05
2023-05-05T05:49:43.512Z,13.06
2023-05-05T05:52:28.974Z,13.14
2023-05-05T05:55:13.939Z,13.27
2023-05-05T05:57:59.578Z,13.36
2023-05-05T06:00:44.300Z,13.55
2023-05-05T06:03:30.270Z,13.67
2023-05-05T06:06:15.460Z,13.52
2023-05-05T06:09:24.640Z,13.47
2023-05-05T06:12:11.677Z,13.62
2023-05-05T06:14:57.074Z,13.73
2023-05-05T06:17:42.178Z,13.83
2023-05-05T06:20:27.299Z,14.06
2023-05-05T06:23:12.945Z,14.18
2023-05-05T06:26:02.812Z,14.28
2023-05-05T06:28:50.224Z,14.41
2023-05-05T06:31:37.271Z,14.58
2023-05-05T06:34:24.509Z,14.69
2023-05-05T06:37:09.317Z,14.91
2023-05-05T06:39:56.784Z,15.10
2023-05-05T06:42:49.908Z,15.26
2023-05-05T06:45:41.949Z,15.31
2023-05-05T06:48:31.023Z,15.49
2023-05-05T06:51:19.174Z,15.45
2023-05-05T06:54:05.805Z,15.54
2023-05-05T06:56:53.393Z,15.50
2023-05-05T06:59:38.123Z,15.78
2023-05-05T07:02:25.288Z,16.03
2023-05-05T07:05:11.271Z,16.10
2023-05-05T07:07:56.760Z,16.29
2023-05-05T07:10:42.041Z,16.49
2023-05-05T07:13:27.070Z,16.78
2023-05-05T07:16:12.316Z,17.12
2023-05-05T07:19:00.251Z,17.33
2023-05-05T07:22:05.340Z,17.47
2023-05-05T07:24:52.694Z,17.55
2023-05-05T07:27:40.959Z,17.65
2023-05-05T07:30:26.478Z,17.70
2023-05-05T07:33:19.070Z,17.81
2023-05-05T07:36:06.762Z,17.60
2023-05-05T07:38:51.703Z,17.32
2023-05-05T07:41:36.648Z,16.89
2023-05-05T07:44:21.542Z,17.06
2023-05-05T07:47:06.501Z,17.27
2023-05-05T07:49:51.392Z,17.43
2023-05-05T07:52:46.517Z,17.98
2023-05-05T07:55:37.268Z,18.26
2023-05-05T07:58:22.417Z,18.50
2023-05-05T08:01:10.224Z,18.38
2023-05-05T08:03:58.454Z,18.51
2023-05-05T08:06:43.273Z,18.46
2023-05-05T08:09:28.287Z,18.77
2023-05-05T08:12:14.695Z,18.91
2023-05-05T08:14:59.419Z,19.30
2023-05-05T08:17:52.369Z,19.62
2023-05-05T08:20:37.516Z,19.15
2023-05-05T08:23:22.274Z,19.26
2023-05-05T08:26:08.602Z,19.51
2023-05-05T08:29:03.305Z,19.55
2023-05-05T08:31:48.206Z,19.46
2023-05-05T08:34:33.301Z,19.56
2023-05-05T08:37:27.190Z,19.49
2023-05-05T08:40:13.919Z,19.89
2023-05-05T08:42:59.368Z,19.95
2023-05-05T08:45:44.751Z,20.38
2023-05-05T08:48:34.737Z,20.77
2023-05-05T08:51:20.030Z,21.19
2023-05-05T08:54:09.529Z,20.45
2023-05-05T08:56:59.355Z,19.59
2023-05-05T08:59:44.947Z,19.59
2023-05-05T09:02:30.897Z,19.76
2023-05-05T09:05:16.146Z,19.92
2023-05-05T09:08:04.365Z,19.78
2023-05-05T09:10:51.066Z,18.64
2023-05-05T09:13:46.800Z,18.16
2023-05-05T09:16:32.688Z,18.64
2023-05-05T09:19:17.338Z,19.77
2023-05-05T09:22:02.496Z,20.90
2023-05-05T09:24:54.748Z,21.46
2023-05-05T09:27:48.236Z,21.16
2023-05-05T09:30:35.019Z,21.57
2023-05-05T09:33:33.108Z,21.96
2023-05-05T09:36:20.320Z,22.61
2023-05-05T09:39:05.925Z,22.18
2023-05-05T09:41:51.080Z,21.93
2023-05-05T09:44:40.213Z,21.26
2023-05-05T09:47:36.165Z,21.14
2023-05-05T09:50:22.054Z,21.92
2023-05-05T09:53:07.746Z,22.27
2023-05-05T09:56:02.434Z,22.01
2023-05-05T09:58:47.339Z,21.84
2023-05-05T10:01:32.406Z,21.98
2023-05-05T10:04:28.612Z,21.81
2023-05-05T10:07:22.048Z,21.45
2023-05-05T10:10:13.090Z,20.79
2023-05-05T10:13:01.683Z,20.81
2023-05-05T10:15:49.434Z,22.22
2023-05-05T10:18:35.398Z,23.36
2023-05-05T10:21:21.227Z,23.09
2023-05-05T10:24:11.217Z,23.94
2023-05-05T10:26:58.222Z,24.10
2023-05-05T10:30:03.994Z,24.33
2023-05-05T10:33:13.180Z,24.32
2023-05-05T10:36:06.017Z,24.70
2023-05-05T10:38:55.866Z,22.37
2023-05-05T10:41:41.474Z,23.21
2023-05-05T10:44:29.682Z,24.18
2023-05-05T10:47:16.310Z,25.07
2023-05-05T10:50:11.698Z,25.35
2023-05-05T10:53:13.800Z,26.25
2023-05-05T10:56:18.128Z,27.38
2023-05-05T10:59:21.722Z,28.37
2023-05-05T11:02:29.316Z,28.49
2023-05-05T11:05:20.506Z,28.45
2023-05-05T11:08:25.231Z,26.81
2023-05-05T11:11:12.244Z,25.10
2023-05-05T11:14:19.063Z,23.29
2023-05-05T11:17:03.958Z,22.15
2023-05-05T11:19:51.099Z,22.78
2023-05-05T11:23:01.784Z,25.43
2023-05-05T11:25:46.612Z,27.06
2023-05-05T11:28:31.457Z,28.71
2023-05-05T11:31:17.925Z,29.05
2023-05-05T11:34:24.370Z,29.45
2023-05-05T11:37:09.468Z,29.22
2023-05-05T11:40:15.108Z,29.20
2023-05-05T11:43:05.264Z,27.70
2023-05-05T11:46:08.644Z,25.75
2023-05-05T11:48:53.469Z,23.10
2023-05-05T11:51:39.222Z,21.33
2023-05-05T11:54:24.667Z,20.69
2023-05-05T11:57:09.655Z,21.12
2023-05-05T11:59:55.977Z,23.09
2023-05-05T12:02:41.005Z,24.53
2023-05-05T12:05:25.882Z,25.26
2023-05-05T12:08:11.076Z,26.25
2023-05-05T12:11:03.568Z,27.39
2023-05-05T12:13:48.241Z,28.74
2023-05-05T12:16:32.695Z,29.21
2023-05-05T12:19:17.756Z,27.98
2023-05-05T12:22:03.886Z,26.45
2023-05-05T12:24:54.999Z,24.61
2023-05-05T12:27:40.741Z,23.53
2023-05-05T12:30:25.710Z,22.49
2023-05-05T12:33:10.569Z,22.69
2023-05-05T12:35:56.028Z,24.54
2023-05-05T12:38:41.482Z,25.35
2023-05-05T12:41:27.326Z,26.48
2023-05-05T12:44:11.840Z,27.39
2023-05-05T12:46:58.568Z,29.32
2023-05-05T12:49:51.958Z,30.81
2023-05-05T12:52:44.330Z,30.41
2023-05-05T12:55:36.971Z,28.79
2023-05-05T12:58:22.028Z,26.39
2023-05-05T13:01:10.600Z,24.44
2023-05-05T13:04:12.304Z,23.18
2023-05-05T13:07:14.246Z,22.56
2023-05-05T13:10:10.253Z,22.47
2023-05-05T13:12:56.184Z,22.57
2023-05-05T13:15:41.023Z,23.05
2023-05-05T13:18:26.917Z,23.81
2023-05-05T13:21:11.774Z,24.49
2023-05-05T13:24:08.115Z,24.51
2023-05-05T13:27:02.818Z,25.34
2023-05-05T13:29:50.265Z,27.13
2023-05-05T13:32:35.620Z,28.46
2023-05-05T13:35:20.239Z,29.88
2023-05-05T13:38:04.818Z,31.15
2023-05-05T13:40:49.797Z,32.40
2023-05-05T13:43:34.718Z,31.78
2023-05-05T13:46:20.438Z,29.94
2023-05-05T13:49:05.194Z,30.97
2023-05-05T13:51:50.213Z,31.69
2023-05-05T13:54:36.148Z,31.13
2023-05-05T13:57:20.610Z,31.85
2023-05-05T14:00:06.234Z,32.07
2023-05-05T14:02:52.047Z,30.72
2023-05-05T14:05:37.219Z,29.74
2023-05-05T14:08:22.512Z,29.66
2023-05-05T14:11:07.189Z,29.01
2023-05-05T14:13:52.104Z,29.37
2023-05-05T14:16:36.890Z,29.09
2023-05-05T14:19:21.813Z,28.86
2023-05-05T14:22:06.631Z,28.90
2023-05-05T14:24:51.487Z,29.70
2023-05-05T14:27:36.172Z,29.59
2023-05-05T14:30:20.800Z,27.18
2023-05-05T14:33:06.279Z,24.67
2023-05-05T14:35:51.486Z,22.69
2023-05-05T14:38:36.324Z,21.51
2023-05-05T14:41:21.146Z,20.72
2023-05-05T14:44:06.179Z,20.09
2023-05-05T14:46:51.742Z,19.51
2023-05-05T14:49:36.546Z,19.26
2023-05-05T14:52:21.538Z,18.97
2023-05-05T14:55:06.834Z,18.63
2023-05-05T14:57:51.690Z,18.42
2023-05-05T15:00:36.512Z,18.25
2023-05-05T15:03:22.603Z,18.12
2023-05-05T15:06:08.246Z,17.68
2023-05-05T15:08:53.304Z,17.62
2023-05-05T15:11:38.394Z,17.54
2023-05-05T15:14:23.140Z,17.43
2023-05-05T15:17:08.368Z,17.33
2023-05-05T15:19:53.371Z,17.28
2023-05-05T15:22:38.436Z,17.31
2023-05-05T15:25:23.488Z,17.34
2023-05-05T15:28:08.410Z,17.16
2023-05-05T15:30:53.475Z,16.97
2023-05-05T15:33:39.197Z,16.85
2023-05-05T15:36:24.089Z,16.75
2023-05-05T15:39:09.198Z,16.67
2023-05-05T15:41:53.701Z,16.64
2023-05-05T15:44:38.837Z,16.56
2023-05-05T15:47:23.633Z,16.51
2023-05-05T15:50:08.819Z,16.43
2023-05-05T15:52:56.182Z,16.31
2023-05-05T15:55:41.158Z,16.22
2023-05-05T15:58:26.136Z,16.06
2023-05-05T16:01:28.382Z,15.95
2023-05-05T16:04:13.256Z,15.83
2023-05-05T16:06:58.615Z,15.74
2023-05-05T16:09:43.733Z,15.62
2023-05-05T16:12:28.567Z,15.62
2023-05-05T16:15:13.535Z,15.58
2023-05-05T16:17:58.595Z,15.54
2023-05-05T16:20:43.537Z,15.52
2023-05-05T16:23:28.546Z,15.48
2023-05-05T16:26:13.331Z,15.38
2023-05-05T16:28:58.211Z,15.28
2023-05-05T16:31:43.230Z,15.16
2023-05-05T16:34:28.271Z,15.06
2023-05-05T16:37:13.308Z,14.95
2023-05-05T16:39:58.852Z,14.88
2023-05-05T16:42:44.598Z,14.81
2023-05-05T16:45:29.544Z,14.81
2023-05-05T16:48:14.449Z,14.85
2023-05-05T16:50:59.055Z,14.75
2023-05-05T16:53:43.715Z,14.62
2023-05-05T16:56:28.694Z,14.50
2023-05-05T16:59:15.810Z,14.40
2023-05-05T17:02:00.913Z,14.30
2023-05-05T17:04:45.637Z,14.21
2023-05-05T17:07:30.188Z,14.13
2023-05-05T17:10:15.386Z,14.00
2023-05-05T17:13:00.401Z,13.87
2023-05-05T17:15:45.307Z,13.74
2023-05-05T17:18:30.308Z,13.54
2023-05-05T17:21:15.539Z,13.34
2023-05-05T17:24:00.985Z,13.14
2023-05-05T17:26:46.102Z,12.89
2023-05-05T17:29:32.238Z,12.63
2023-05-05T17:32:16.982Z,12.42
2023-05-05T17:35:02.303Z,12.23
2023-05-05T17:37:46.830Z,12.07
2023-05-05T17:40:31.938Z,11.97
2023-05-05T17:43:17.317Z,11.90
2023-05-05T17:46:02.147Z,11.84
2023-05-05T17:48:47.047Z,11.78
2023-05-05T17:51:32.200Z,11.69
2023-05-05T17:54:17.197Z,11.66
2023-05-05T17:57:02.287Z,11.74
2023-05-05T17:59:49.008Z,11.87
2023-05-05T18:02:37.360Z,12.01
2023-05-05T18:05:22.524Z,12.04
2023-05-05T18:08:07.301Z,12.07
2023-05-05T18:10:53.458Z,12.04
2023-05-05T18:13:38.869Z,11.98
2023-05-05T18:16:23.641Z,11.94
2023-05-05T18:19:10.788Z,11.89
2023-05-05T18:21:56.768Z,11.79
2023-05-05T18:24:41.320Z,11.74
2023-05-05T18:27:27.127Z,11.69
2023-05-05T18:30:12.190Z,11.65
2023-05-05T18:32:57.374Z,11.60
2023-05-05T18:35:42.237Z,11.57
2023-05-05T18:38:27.324Z,11.56
2023-05-05T18:41:12.356Z,11.54
2023-05-05T18:43:57.195Z,11.50
2023-05-05T18:46:46.280Z,11.47
2023-05-05T18:49:31.576Z,11.43
2023-05-05T18:52:16.550Z,11.35
2023-05-05T18:55:01.558Z,11.33
2023-05-05T18:57:46.483Z,11.27
2023-05-05T19:00:31.539Z,11.19
2023-05-05T19:03:16.955Z,11.10
2023-05-05T19:06:05.564Z,11.02
2023-05-05T19:08:50.570Z,10.95
2023-05-05T19:11:35.752Z,10.88
2023-05-05T19:14:21.836Z,10.79
2023-05-05T19:17:06.941Z,10.72
2023-05-05T19:19:52.018Z,10.66
2023-05-05T19:22:36.861Z,10.60
2023-05-05T19:25:21.822Z,10.58
2023-05-05T19:28:06.718Z,10.51
2023-05-05T19:30:51.673Z,10.43
2023-05-05T19:33:36.727Z,10.35
2023-05-05T19:36:21.734Z,10.27
2023-05-05T19:39:06.603Z,10.16
2023-05-05T19:41:52.372Z,10.04
2023-05-05T19:44:37.164Z,9.91
2023-05-05T19:47:21.973Z,9.81
2023-05-05T19:50:07.956Z,9.72
2023-05-05T19:52:54.154Z,9.62
2023-05-05T19:55:39.205Z,9.52
2023-05-05T19:58:23.768Z,9.40
2023-05-05T20:01:08.917Z,9.32
2023-05-05T20:03:55.574Z,9.26
2023-05-05T20:06:40.697Z,9.17
2023-05-05T20:09:26.854Z,9.08
2023-05-05T20:12:11.706Z,9.01
2023-05-05T20:14:56.398Z,8.92
2023-05-05T20:17:41.522Z,8.89
2023-05-05T20:20:25.991Z,8.88
2023-05-05T20:23:11.127Z,8.81
2023-05-05T20:25:56.160Z,8.78
2023-05-05T20:28:44.182Z,8.74
2023-05-05T20:31:30.824Z,8.67
2023-05-05T20:34:15.327Z,8.61
2023-05-05T20:37:00.470Z,8.52
2023-05-05T20:39:46.665Z,8.48
2023-05-05T20:42:31.217Z,8.43
2023-05-05T20:45:16.420Z,8.38
2023-05-05T20:48:01.438Z,8.29
2023-05-05T20:50:46.230Z,8.26
2023-05-05T20:53:31.471Z,8.20
2023-05-05T20:56:16.666Z,8.15
2023-05-05T20:59:03.400Z,8.13
2023-05-05T21:01:48.163Z,8.06
2023-05-05T21:04:33.306Z,8.05
2023-05-05T21:07:18.337Z,8.00
2023-05-05T21:10:04.292Z,7.99
2023-05-05T21:12:49.631Z,8.03
2023-05-05T21:15:37.934Z,8.07
2023-05-05T21:18:25.080Z,8.05
2023-05-05T21:21:10.228Z,8.12
2023-05-05T21:23:55.522Z,8.12
2023-05-05T21:26:44.810Z,8.16
2023-05-05T21:29:33.743Z,8.22
2023-05-05T21:32:18.597Z,8.24
2023-05-05T21:35:05.678Z,8.27
2023-05-05T21:37:50.824Z,8.28
2023-05-05T21:40:35.585Z,8.28
2023-05-05T21:43:20.679Z,8.25
2023-05-05T21:46:05.569Z,8.23
2023-05-05T21:48:50.708Z,8.24
2023-05-05T21:51:36.650Z,8.27
2023-05-05T21:54:21.366Z,8.24
2023-05-05T21:57:06.456Z,8.24
2023-05-05T21:59:51.475Z,8.24
2023-05-05T22:02:36.449Z,8.22
2023-05-05T22:05:21.375Z,8.21
2023-05-05T22:08:06.437Z,8.18
2023-05-05T22:10:51.572Z,8.14
2023-05-05T22:13:38.289Z,8.11
2023-05-05T22:16:23.428Z,8.09
2023-05-05T22:19:08.132Z,8.05
2023-05-05T22:21:52.800Z,8.02
2023-05-05T22:24:37.769Z,7.93
2023-05-05T22:27:22.772Z,7.89
2023-05-05T22:30:08.309Z,7.79
2023-05-05T22:32:53.058Z,7.74
2023-05-05T22:35:38.171Z,7.64
2023-05-05T22:38:22.880Z,7.57
2023-05-05T22:41:07.950Z,7.50
2023-05-05T22:43:52.365Z,7.38
2023-05-05T22:46:37.721Z,7.33
2023-05-05T22:49:22.395Z,7.24
2023-05-05T22:52:08.048Z,7.22
2023-05-05T22:54:52.912Z,7.13
2023-05-05T22:57:37.991Z,7.02
2023-05-05T23:00:23.552Z,6.95
2023-05-05T23:03:08.461Z,6.82
2023-05-05T23:05:53.518Z,6.71
2023-05-05T23:08:37.997Z,6.62
2023-05-05T23:11:22.683Z,6.50
2023-05-05T23:14:07.509Z,6.39
2023-05-05T23:16:52.002Z,6.28
2023-05-05T23:19:37.125Z,6.17
2023-05-05T23:22:22.012Z,6.08
2023-05-05T23:25:08.126Z,6.00
2023-05-05T23:27:53.132Z,5.93
2023-05-05T23:30:37.983Z,5.87
2023-05-05T23:33:22.430Z,5.80
2023-05-05T23:36:08.456Z,5.72
2023-05-05T23:38:53.082Z,5.59
2023-05-05T23:41:38.112Z,5.50
2023-05-05T23:44:23.151Z,5.41
2023-05-05T23:47:07.920Z,5.32
2023-05-05T23:49:52.854Z,5.21
2023-05-05T23:52:37.766Z,5.12
2023-05-05T23:55:22.316Z,5.04
2023-05-05T23:58:07.316Z,4.96
